Time;durP1;ratioP1;P1;durP2;ratioP2;P2;SDS_P1;SDS_P2;PMS_P1;PMS_P2;Temp;Humidity;BMP_temperature;BMP_pressure;BME280_temperature;BME280_humidity;BME280_pressure;Samples;Min_cycle;Max_cycle;Signal;HPM_P1;HPM_P2
2022/07/18 00:01:35;;;;;;;3.77;1.20;;;;;15.90;101936.00;;;;5087387;28;20237;-67
2022/07/18 00:04:21;;;;;;;1.40;1.30;;;;;15.90;101941.00;;;;5088568;28;20298;-67
2022/07/18 00:07:07;;;;;;;1.53;1.20;;;;;15.80;101946.00;;;;5082711;28;20360;-68
2022/07/18 00:09:53;;;;;;;2.50;1.40;;;;;15.90;101934.00;;;;5086125;28;20266;-68
2022/07/18 00:12:40;;;;;;;3.40;1.50;;;;;15.90;101932.00;;;;5073857;28;20311;-69
2022/07/18 00:15:28;;;;;;;1.47;1.20;;;;;15.80;101923.00;;;;5085666;28;20726;-67
2022/07/18 00:18:14;;;;;;;2.13;1.40;;;;;15.80;101923.00;;;;5086059;28;20366;-69
2022/07/18 00:21:03;;;;;;;3.47;1.50;;;;;15.90;101917.00;;;;5081233;28;20211;-70
2022/07/18 00:23:49;;;;;;;1.70;1.23;;;;;15.70;101909.00;;;;5079241;28;20273;-68
2022/07/18 00:26:35;;;;;;;1.60;1.20;;;;;15.70;101915.00;;;;5080732;28;20348;-68
2022/07/18 00:29:21;;;;;;;1.43;1.33;;;;;15.60;101914.00;;;;5081382;28;20224;-68
2022/07/18 00:32:09;;;;;;;2.23;1.43;;;;;15.60;101908.00;;;;5076571;28;20258;-70
2022/07/18 00:34:56;;;;;;;1.30;1.20;;;;;15.50;101906.00;;;;5082011;28;20264;-68
2022/07/18 00:37:42;;;;;;;2.63;1.20;;;;;15.60;101904.00;;;;5081000;28;20223;-67
2022/07/18 00:40:28;;;;;;;1.97;1.40;;;;;15.40;101901.00;;;;5080727;28;20213;-68
2022/07/18 00:43:15;;;;;;;6.93;1.43;;;;;15.40;101898.00;;;;5084939;28;20248;-69
2022/07/18 00:46:06;;;;;;;3.30;1.37;;;;;15.40;101898.00;;;;5082093;28;20221;-68
2022/07/18 00:48:54;;;;;;;3.80;1.57;;;;;15.40;101898.00;;;;5081571;28;20213;-68
2022/07/18 00:51:40;;;;;;;3.20;1.53;;;;;15.40;101907.00;;;;5083293;28;20204;-67
2022/07/18 00:54:27;;;;;;;1.33;1.20;;;;;15.40;101907.00;;;;5086942;28;20211;-68
2022/07/18 00:57:13;;;;;;;1.50;1.40;;;;;15.30;101907.00;;;;5084073;28;20253;-68
2022/07/18 01:03:03;;;;;;;1.43;1.33;;;;;15.40;101910.00;;;;5075270;28;20261;-70
2022/07/18 01:05:52;;;;;;;2.60;1.60;;;;;15.40;101903.00;;;;5081158;28;20210;-68
2022/07/18 01:08:38;;;;;;;1.50;1.40;;;;;15.30;101903.00;;;;5082725;28;20219;-68
2022/07/18 01:11:24;;;;;;;3.20;1.60;;;;;15.30;101899.00;;;;5086986;28;20216;-71
2022/07/18 01:14:11;;;;;;;1.63;1.30;;;;;15.30;101906.00;;;;5083803;28;20315;-71
2022/07/18 01:16:58;;;;;;;2.77;1.40;;;;;15.30;101908.00;;;;5081524;28;20221;-69
2022/07/18 01:19:46;;;;;;;1.40;1.30;;;;;15.30;101917.00;;;;5083469;28;20227;-69
2022/07/18 01:22:33;;;;;;;1.40;1.30;;;;;15.30;101903.00;;;;5086005;28;20224;-69
2022/07/18 01:25:20;;;;;;;1.20;1.10;;;;;15.30;101900.00;;;;5085579;28;20211;-69
2022/07/18 01:28:06;;;;;;;1.17;1.07;;;;;15.20;101892.00;;;;5083237;28;20227;-70
2022/07/18 01:30:52;;;;;;;9.53;1.60;;;;;15.10;101900.00;;;;5085788;28;20214;-67
2022/07/18 01:33:38;;;;;;;2.27;1.30;;;;;15.20;101893.00;;;;5080457;28;20235;-66
2022/07/18 01:36:24;;;;;;;1.50;1.40;;;;;15.20;101889.00;;;;5084478;28;20218;-66
2022/07/18 01:39:13;;;;;;;1.33;1.23;;;;;15.00;101885.00;;;;5082175;28;20788;-68
2022/07/18 01:42:00;;;;;;;1.50;1.40;;;;;15.10;101883.00;;;;5077443;28;20337;-67
2022/07/18 01:44:46;;;;;;;1.50;1.40;;;;;15.00;101876.00;;;;5075656;28;20258;-66
2022/07/18 01:47:33;;;;;;;2.60;1.60;;;;;15.10;101865.00;;;;5084948;28;20217;-67
2022/07/18 01:50:19;;;;;;;1.67;1.50;;;;;15.10;101873.00;;;;5077084;28;20212;-64
2022/07/18 01:53:06;;;;;;;1.50;1.30;;;;;15.10;101860.00;;;;5075752;28;20984;-65
2022/07/18 01:55:53;;;;;;;1.83;1.60;;;;;15.10;101864.00;;;;5081437;28;20644;-67
2022/07/18 01:58:40;;;;;;;2.93;1.87;;;;;15.10;101874.00;;;;5086038;28;20293;-66
2022/07/18 02:01:26;;;;;;;1.33;1.23;;;;;15.00;101870.00;;;;5084668;28;20297;-68
2022/07/18 02:04:12;;;;;;;1.60;1.50;;;;;15.00;101862.00;;;;5082748;28;20284;-66
2022/07/18 02:06:58;;;;;;;1.53;1.40;;;;;15.10;101857.00;;;;5071766;28;20206;-67
2022/07/18 02:09:45;;;;;;;1.93;1.60;;;;;15.00;101862.00;;;;5070251;28;20247;-67
2022/07/18 02:12:32;;;;;;;2.07;1.40;;;;;15.00;101854.00;;;;5084630;28;20612;-67
2022/07/18 02:15:19;;;;;;;1.40;1.30;;;;;14.90;101859.00;;;;5084960;28;20208;-67
2022/07/18 02:18:05;;;;;;;2.10;1.27;;;;;14.90;101855.00;;;;5079569;28;20244;-67
2022/07/18 02:20:51;;;;;;;1.70;1.60;;;;;14.90;101861.00;;;;5085420;28;20617;-67
2022/07/18 02:23:37;;;;;;;2.47;1.50;;;;;14.80;101854.00;;;;5075436;28;20227;-67
2022/07/18 02:26:24;;;;;;;1.70;1.20;;;;;14.80;101860.00;;;;5076619;28;20264;-67
2022/07/18 02:29:11;;;;;;;1.40;1.30;;;;;14.70;101845.00;;;;5079915;28;20368;-68
2022/07/18 02:31:57;;;;;;;1.53;1.33;;;;;14.60;101843.00;;;;5079534;28;20211;-67
2022/07/18 02:34:43;;;;;;;2.33;1.40;;;;;14.70;101842.00;;;;5078178;28;20275;-66
2022/07/18 02:37:30;;;;;;;2.17;1.30;;;;;14.60;101845.00;;;;5084899;28;20202;-67
2022/07/18 02:40:16;;;;;;;2.93;1.40;;;;;14.70;101857.00;;;;5086670;28;20232;-68
2022/07/18 02:43:04;;;;;;;2.20;1.50;;;;;14.60;101852.00;;;;5076751;28;20356;-67
2022/07/18 02:45:51;;;;;;;5.70;1.40;;;;;14.50;101849.00;;;;5089014;28;20690;-66
2022/07/18 02:48:37;;;;;;;1.30;1.20;;;;;14.50;101854.00;;;;5082516;28;20338;-67
2022/07/18 02:51:24;;;;;;;2.17;1.50;;;;;14.40;101853.00;;;;5079296;28;20269;-65
2022/07/18 02:54:10;;;;;;;1.83;1.50;;;;;14.40;101854.00;;;;5086309;28;20231;-65
2022/07/18 02:57:02;;;;;;;1.87;1.50;;;;;14.40;101853.00;;;;5078035;28;20556;-66
2022/07/18 02:59:48;;;;;;;2.47;1.50;;;;;14.30;101860.00;;;;5075064;28;20783;-66
2022/07/18 03:02:36;;;;;;;1.87;1.47;;;;;14.40;101859.00;;;;5089026;28;20901;-67
2022/07/18 03:05:32;;;;;;;3.57;1.30;;;;;14.30;101854.00;;;;5075610;28;20367;-68
2022/07/18 03:08:18;;;;;;;2.90;1.40;;;;;14.30;101849.00;;;;5080874;28;20216;-67
2022/07/18 03:11:04;;;;;;;2.67;1.40;;;;;14.30;101855.00;;;;5082797;28;20270;-67
2022/07/18 03:13:51;;;;;;;2.83;1.50;;;;;14.20;101853.00;;;;5076582;28;20347;-67
2022/07/18 03:16:37;;;;;;;2.13;1.67;;;;;14.10;101838.00;;;;5086813;28;20216;-67
2022/07/18 03:19:25;;;;;;;1.67;1.40;;;;;14.20;101836.00;;;;5085712;28;20234;-66
2022/07/18 03:22:11;;;;;;;2.97;1.53;;;;;14.00;101839.00;;;;5086363;28;20216;-67
2022/07/18 03:24:58;;;;;;;3.90;1.40;;;;;14.10;101850.00;;;;5078373;28;20199;-67
2022/07/18 03:27:44;;;;;;;1.70;1.57;;;;;14.10;101842.00;;;;5077362;28;20702;-67
2022/07/18 03:30:30;;;;;;;1.73;1.47;;;;;14.00;101816.00;;;;5084823;28;20239;-66
2022/07/18 03:33:16;;;;;;;3.07;1.53;;;;;14.00;101832.00;;;;5083701;28;20243;-68
2022/07/18 03:36:04;;;;;;;2.20;1.47;;;;;14.00;101832.00;;;;5074000;28;20204;-67
2022/07/18 03:38:50;;;;;;;3.53;1.63;;;;;14.00;101833.00;;;;5081705;28;20216;-67
2022/07/18 03:41:37;;;;;;;2.73;1.70;;;;;14.00;101840.00;;;;5079905;28;20734;-67
2022/07/18 03:44:23;;;;;;;1.77;1.40;;;;;13.90;101845.00;;;;5087056;28;20285;-67
2022/07/18 03:47:10;;;;;;;3.20;1.70;;;;;13.90;101837.00;;;;5082915;28;20917;-67
2022/07/18 03:49:56;;;;;;;1.50;1.33;;;;;13.90;101853.00;;;;5089178;28;20216;-67
2022/07/18 03:52:44;;;;;;;1.83;1.60;;;;;13.90;101841.00;;;;5075426;28;20223;-68
2022/07/18 03:55:30;;;;;;;3.70;1.70;;;;;13.90;101835.00;;;;5084915;28;20216;-68
2022/07/18 03:58:17;;;;;;;2.77;1.50;;;;;14.00;101835.00;;;;5088464;28;20582;-67
2022/07/18 04:01:03;;;;;;;2.00;1.50;;;;;13.90;101846.00;;;;5079404;28;20241;-69
2022/07/18 04:03:50;;;;;;;5.40;1.57;;;;;13.80;101829.00;;;;5087184;28;20297;-67
2022/07/18 04:06:36;;;;;;;7.40;1.90;;;;;14.00;101834.00;;;;5087563;28;20216;-69
2022/07/18 04:09:24;;;;;;;2.20;1.57;;;;;14.00;101830.00;;;;5087489;28;20211;-69
2022/07/18 04:12:10;;;;;;;4.50;1.67;;;;;14.00;101837.00;;;;5082925;28;20257;-68
2022/07/18 04:14:56;;;;;;;1.73;1.60;;;;;14.00;101836.00;;;;5086896;28;20795;-68
2022/07/18 04:17:43;;;;;;;1.67;1.30;;;;;14.00;101839.00;;;;5078776;28;20243;-67
2022/07/18 04:20:29;;;;;;;2.03;1.60;;;;;14.00;101840.00;;;;5085263;28;20867;-67
2022/07/18 04:23:18;;;;;;;2.23;1.70;;;;;14.10;101837.00;;;;5088089;28;20302;-69
2022/07/18 04:26:06;;;;;;;2.87;1.60;;;;;14.10;101843.00;;;;5082797;28;20739;-67
2022/07/18 04:28:52;;;;;;;4.13;1.70;;;;;14.10;101831.00;;;;5085561;28;20273;-67
2022/07/18 04:31:38;;;;;;;3.00;1.70;;;;;14.30;101835.00;;;;5087201;28;20211;-66
2022/07/18 04:34:25;;;;;;;2.23;1.70;;;;;14.40;101841.00;;;;5074670;28;20199;-67
2022/07/18 04:37:11;;;;;;;1.83;1.40;;;;;14.40;101835.00;;;;5085569;28;20269;-68
2022/07/18 04:39:57;;;;;;;1.90;1.50;;;;;14.40;101833.00;;;;5076294;28;20302;-67
2022/07/18 04:42:45;;;;;;;2.10;1.50;;;;;14.40;101834.00;;;;5084166;28;20247;-68
2022/07/18 04:45:31;;;;;;;2.33;1.83;;;;;14.40;101842.00;;;;5087158;28;20210;-68
2022/07/18 04:48:18;;;;;;;2.10;1.40;;;;;14.50;101845.00;;;;5083347;28;20380;-67
2022/07/18 04:51:04;;;;;;;4.40;1.90;;;;;14.60;101841.00;;;;5081529;28;20269;-68
2022/07/18 04:53:51;;;;;;;2.70;1.90;;;;;14.60;101851.00;;;;5079579;28;20227;-68
2022/07/18 04:56:37;;;;;;;3.33;1.47;;;;;14.70;101842.00;;;;5084541;28;20289;-68
2022/07/18 04:59:25;;;;;;;2.30;1.53;;;;;14.80;101834.00;;;;5080954;28;20217;-68
2022/07/18 05:02:11;;;;;;;2.17;1.53;;;;;14.90;101835.00;;;;5082465;28;20697;-69
2022/07/18 05:04:57;;;;;;;2.47;1.57;;;;;14.90;101836.00;;;;5079844;28;20216;-69
2022/07/18 05:07:45;;;;;;;2.70;1.50;;;;;15.00;101830.00;;;;5084564;28;20211;-69
2022/07/18 05:10:32;;;;;;;1.53;1.23;;;;;15.10;101835.00;;;;5082907;28;20230;-67
2022/07/18 05:13:18;;;;;;;2.93;1.50;;;;;15.10;101832.00;;;;5083779;28;20238;-69
2022/07/18 05:16:07;;;;;;;5.37;1.90;;;;;15.20;101832.00;;;;5084425;28;20763;-66
2022/07/18 05:18:53;;;;;;;2.10;1.87;;;;;15.30;101832.00;;;;5084791;28;20216;-67
2022/07/18 05:21:39;;;;;;;1.90;1.47;;;;;15.40;101831.00;;;;5081165;28;20245;-68
2022/07/18 05:24:27;;;;;;;2.63;1.83;;;;;15.50;101826.00;;;;5084398;28;20206;-67
2022/07/18 05:27:13;;;;;;;4.07;1.90;;;;;15.60;101821.00;;;;5079839;28;20733;-68
2022/07/18 05:29:59;;;;;;;2.17;1.90;;;;;15.80;101814.00;;;;5086715;28;20208;-67
2022/07/18 05:32:47;;;;;;;3.63;2.03;;;;;15.90;101809.00;;;;5078947;28;20231;-69
2022/07/18 05:35:33;;;;;;;3.27;2.10;;;;;16.00;101805.00;;;;5080524;28;20219;-69
2022/07/18 05:38:20;;;;;;;3.30;2.20;;;;;16.10;101802.00;;;;5077570;28;20700;-68
2022/07/18 05:41:07;;;;;;;3.17;2.20;;;;;16.10;101808.00;;;;5069404;28;20236;-66
2022/07/18 05:43:53;;;;;;;4.17;2.13;;;;;16.20;101808.00;;;;5085971;28;20290;-65
2022/07/18 05:46:40;;;;;;;3.20;2.43;;;;;16.20;101804.00;;;;5076102;28;20208;-66
2022/07/18 05:49:28;;;;;;;4.60;2.70;;;;;16.40;101804.00;;;;5078108;28;20212;-66
2022/07/18 05:52:14;;;;;;;3.73;2.50;;;;;16.50;101804.00;;;;5078066;28;20214;-66
2022/07/18 05:55:00;;;;;;;4.43;2.63;;;;;16.60;101795.00;;;;5082865;28;20248;-65
2022/07/18 05:57:49;;;;;;;7.87;2.63;;;;;16.70;101796.00;;;;5080552;28;20296;-65
2022/07/18 06:00:35;;;;;;;3.73;2.13;;;;;16.80;101793.00;;;;5076091;28;20225;-65
2022/07/18 06:03:22;;;;;;;4.23;2.73;;;;;16.90;101793.00;;;;5082586;28;20355;-68
2022/07/18 06:06:10;;;;;;;6.43;3.03;;;;;17.20;101786.00;;;;5073769;28;20222;-67
2022/07/18 06:08:57;;;;;;;4.17;2.47;;;;;17.20;101799.00;;;;5074806;28;20214;-67
2022/07/18 06:11:43;;;;;;;4.20;2.60;;;;;17.30;101796.00;;;;5083657;28;20217;-67
2022/07/18 06:14:30;;;;;;;6.00;2.53;;;;;17.40;101787.00;;;;5083849;28;20215;-66
2022/07/18 06:17:16;;;;;;;6.63;2.67;;;;;17.50;101788.00;;;;5085416;28;20686;-67
2022/07/18 06:20:05;;;;;;;3.93;2.30;;;;;17.60;101792.00;;;;5083488;28;20268;-68
2022/07/18 06:22:52;;;;;;;4.23;2.50;;;;;17.70;101793.00;;;;5079720;28;20371;-71
2022/07/18 06:25:39;;;;;;;9.67;3.60;;;;;17.80;101791.00;;;;5083871;28;20212;-71
2022/07/18 06:28:25;;;;;;;6.77;2.90;;;;;17.80;101778.00;;;;5085170;28;20561;-70
2022/07/18 06:31:14;;;;;;;5.27;3.03;;;;;17.90;101788.00;;;;5082258;28;20742;-69
2022/07/18 06:34:01;;;;;;;3.37;2.27;;;;;18.10;101801.00;;;;5080489;28;20294;-68
2022/07/18 06:36:48;;;;;;;6.10;2.57;;;;;18.20;101802.00;;;;5088690;28;20223;-69
2022/07/18 06:39:35;;;;;;;3.17;2.27;;;;;18.30;101798.00;;;;5075982;28;20690;-69
2022/07/18 06:42:22;;;;;;;5.13;2.73;;;;;18.50;101794.00;;;;5076046;28;20764;-67
2022/07/18 06:45:09;;;;;;;4.33;2.20;;;;;18.60;101797.00;;;;5082819;28;20231;-67
2022/07/18 06:47:58;;;;;;;4.23;2.00;;;;;18.60;101788.00;;;;5077971;28;20211;-67
2022/07/18 06:50:44;;;;;;;4.00;2.10;;;;;18.70;101783.00;;;;5084852;28;20941;-68
2022/07/18 06:53:31;;;;;;;4.60;2.07;;;;;18.80;101787.00;;;;5089318;28;20259;-71
2022/07/18 06:56:18;;;;;;;2.57;1.70;;;;;19.00;101777.00;;;;5088803;28;20215;-69
2022/07/18 06:59:05;;;;;;;6.03;1.97;;;;;19.10;101774.00;;;;5087208;28;20215;-71
2022/07/18 07:01:51;;;;;;;4.33;2.10;;;;;19.30;101786.00;;;;5076819;28;20319;-70
2022/07/18 07:04:38;;;;;;;3.43;2.20;;;;;19.30;101776.00;;;;5088899;28;20219;-66
2022/07/18 07:07:24;;;;;;;3.17;1.97;;;;;19.50;101775.00;;;;5091890;28;20329;-67
2022/07/18 07:10:11;;;;;;;3.00;1.87;;;;;19.40;101772.00;;;;5083891;28;20232;-69
2022/07/18 07:12:59;;;;;;;2.47;1.57;;;;;19.50;101768.00;;;;5089408;28;20220;-68
2022/07/18 07:15:45;;;;;;;3.47;1.80;;;;;19.60;101764.00;;;;5087457;28;20206;-68
2022/07/18 07:18:32;;;;;;;3.23;1.83;;;;;19.70;101763.00;;;;5086691;28;20775;-65
2022/07/18 07:21:19;;;;;;;4.70;1.50;;;;;19.80;101754.00;;;;5075340;28;20247;-67
2022/07/18 07:24:07;;;;;;;5.43;1.50;;;;;19.80;101758.00;;;;5079896;28;20243;-69
2022/07/18 07:26:53;;;;;;;3.70;2.17;;;;;20.00;101757.00;;;;5078941;28;20754;-68
2022/07/18 07:29:43;;;;;;;6.07;1.90;;;;;20.10;101755.00;;;;5084755;28;20211;-69
2022/07/18 07:32:29;;;;;;;3.53;2.00;;;;;20.20;101751.00;;;;5086768;28;20227;-67
2022/07/18 07:35:17;;;;;;;3.20;1.77;;;;;20.30;101749.00;;;;5081617;28;20557;-68
2022/07/18 07:38:03;;;;;;;3.47;1.73;;;;;20.40;101755.00;;;;5084570;28;20204;-68
2022/07/18 07:40:49;;;;;;;4.30;2.10;;;;;20.60;101760.00;;;;5083288;28;20788;-68
2022/07/18 07:43:38;;;;;;;6.20;1.90;;;;;20.70;101762.00;;;;5084855;28;20654;-69
2022/07/18 07:46:25;;;;;;;4.00;1.50;;;;;20.90;101756.00;;;;5086295;28;20285;-68
2022/07/18 07:49:12;;;;;;;3.00;1.63;;;;;20.90;101752.00;;;;5083867;28;20235;-68
2022/07/18 07:51:58;;;;;;;2.70;1.60;;;;;21.00;101750.00;;;;5083840;28;20364;-67
2022/07/18 07:54:45;;;;;;;3.13;1.70;;;;;21.20;101742.00;;;;5083373;28;20273;-67
2022/07/18 07:57:32;;;;;;;1.97;1.50;;;;;21.30;101749.00;;;;5088286;28;20930;-68
2022/07/18 08:00:21;;;;;;;2.80;1.60;;;;;21.50;101751.00;;;;5082364;28;20283;-66
2022/07/18 08:03:10;;;;;;;1.40;1.30;;;;;21.80;101750.00;;;;5081994;28;20233;-66
2022/07/18 08:05:56;;;;;;;4.53;2.00;;;;;21.80;101745.00;;;;5085792;28;20283;-68
2022/07/18 08:08:42;;;;;;;2.27;1.63;;;;;21.90;101736.00;;;;5085255;28;20575;-67
2022/07/18 08:11:29;;;;;;;2.00;1.60;;;;;22.00;101734.00;;;;5084509;28;20271;-67
2022/07/18 08:14:16;;;;;;;1.83;1.53;;;;;22.50;101738.00;;;;5080714;28;20311;-69
2022/07/18 08:17:02;;;;;;;1.87;1.43;;;;;22.60;101735.00;;;;5081573;28;20231;-71
2022/07/18 08:19:50;;;;;;;2.93;1.30;;;;;22.70;101731.00;;;;5087160;28;20215;-69
2022/07/18 08:22:37;;;;;;;2.57;1.50;;;;;23.00;101734.00;;;;5084927;28;20623;-67
2022/07/18 08:25:23;;;;;;;3.23;1.37;;;;;23.10;101735.00;;;;5080758;28;20637;-69
2022/07/18 08:28:10;;;;;;;1.30;1.20;;;;;23.10;101746.00;;;;5078057;28;20230;-67
2022/07/18 08:30:56;;;;;;;5.17;1.53;;;;;23.30;101744.00;;;;5084381;28;21001;-69
2022/07/18 08:33:42;;;;;;;1.80;1.53;;;;;23.60;101750.00;;;;5087435;28;20838;-65
2022/07/18 08:36:30;;;;;;;1.77;1.23;;;;;23.90;101746.00;;;;5076130;28;20620;-67
2022/07/18 08:39:24;;;;;;;1.50;1.20;;;;;24.10;101736.00;;;;5083829;28;20215;-69
2022/07/18 08:42:12;;;;;;;1.60;1.37;;;;;24.50;101735.00;;;;5079459;28;20325;-67
2022/07/18 08:44:58;;;;;;;3.23;1.33;;;;;24.50;101741.00;;;;5079966;28;20231;-69
2022/07/18 08:47:45;;;;;;;3.40;1.23;;;;;24.70;101736.00;;;;5079529;28;20228;-70
2022/07/18 08:50:32;;;;;;;1.30;1.20;;;;;24.80;101735.00;;;;5080614;28;20341;-70
2022/07/18 08:53:20;;;;;;;1.87;1.50;;;;;25.10;101734.00;;;;5066648;28;20252;-69
2022/07/18 08:56:07;;;;;;;4.13;1.50;;;;;25.30;101728.00;;;;5076731;28;20220;-70
2022/07/18 08:58:53;;;;;;;4.97;2.30;;;;;25.30;101722.00;;;;5079446;28;20769;-68
2022/07/18 09:01:39;;;;;;;1.97;1.27;;;;;25.40;101728.00;;;;5086350;28;20290;-66
2022/07/18 09:04:33;;;;;;;2.13;1.27;;;;;25.60;101724.00;;;;5081127;28;20655;-66
2022/07/18 09:07:25;;;;;;;1.53;1.40;;;;;25.60;101732.00;;;;5085054;28;20211;-67
2022/07/18 09:10:13;;;;;;;2.70;1.37;;;;;25.80;101737.00;;;;5084854;28;20282;-68
2022/07/18 09:12:59;;;;;;;3.53;1.30;;;;;26.00;101739.00;;;;5085155;28;20607;-68
2022/07/18 09:16:02;;;;;;;3.83;1.60;;;;;26.10;101738.00;;;;5078281;28;20242;-67
2022/07/18 09:18:49;;;;;;;2.10;1.20;;;;;26.30;101741.00;;;;5079977;28;20843;-67
2022/07/18 09:21:38;;;;;;;1.90;1.30;;;;;26.40;101733.00;;;;5079737;28;20217;-68
2022/07/18 09:24:24;;;;;;;3.27;1.43;;;;;26.70;101728.00;;;;5080946;28;20227;-67
2022/07/18 09:27:24;;;;;;;3.97;1.23;;;;;26.90;101735.00;;;;5077326;28;20220;-67
2022/07/18 09:30:17;;;;;;;1.30;1.20;;;;;27.00;101728.00;;;;5073803;28;20350;-68
2022/07/18 09:33:08;;;;;;;3.17;1.30;;;;;27.00;101726.00;;;;5067152;28;20224;-69
2022/07/18 09:35:55;;;;;;;1.20;1.10;;;;;27.20;101728.00;;;;5082088;28;20692;-68
2022/07/18 09:38:42;;;;;;;1.48;1.27;;;;;27.40;101728.00;;;;5077153;28;20207;-70
2022/07/18 09:41:32;;;;;;;3.17;1.45;;;;;27.40;101730.00;;;;5079543;28;20266;-67
2022/07/18 09:44:21;;;;;;;1.85;1.38;;;;;27.50;101731.00;;;;5081322;28;20227;-71
2022/07/18 09:47:07;;;;;;;2.95;1.30;;;;;27.60;101723.00;;;;5084156;28;20679;-67
2022/07/18 09:49:54;;;;;;;2.00;1.25;;;;;27.80;101733.00;;;;5084734;28;20338;-68
2022/07/18 09:52:42;;;;;;;2.67;1.40;;;;;27.80;101732.00;;;;5081918;28;20729;-68
2022/07/18 09:55:30;;;;;;;1.48;1.30;;;;;28.00;101721.00;;;;5081109;28;21004;-67
2022/07/18 09:58:19;;;;;;;6.55;1.40;;;;;28.10;101727.00;;;;5079403;28;20220;-68
2022/07/18 10:01:09;;;;;;;2.35;1.48;;;;;28.10;101719.00;;;;5076353;28;20212;-67
2022/07/18 10:03:56;;;;;;;2.67;1.60;;;;;28.30;101717.00;;;;5076817;28;20277;-68
2022/07/18 10:06:44;;;;;;;1.90;1.50;;;;;28.50;101724.00;;;;5082678;28;20223;-68
2022/07/18 10:09:31;;;;;;;11.05;6.22;;;;;28.50;101723.00;;;;5074494;28;20577;-67
2022/07/18 10:12:19;;;;;;;3.25;1.80;;;;;28.70;101725.00;;;;5084979;28;20725;-65
2022/07/18 10:15:06;;;;;;;1.65;1.40;;;;;29.20;101734.00;;;;5073012;28;20223;-67
2022/07/18 10:17:54;;;;;;;2.80;1.55;;;;;29.20;101730.00;;;;5074827;28;20242;-67
2022/07/18 10:20:43;;;;;;;2.58;1.70;;;;;29.50;101711.00;;;;5084654;28;20349;-66
2022/07/18 10:23:33;;;;;;;1.90;1.55;;;;;29.60;101725.00;;;;5079073;28;20933;-69
2022/07/18 10:26:21;;;;;;;2.10;1.55;;;;;29.40;101726.00;;;;5079782;28;20227;-65
2022/07/18 10:29:26;;;;;;;2.72;1.67;;;;;29.60;101720.00;;;;5084376;28;20697;-66
2022/07/18 10:32:12;;;;;;;3.13;1.58;;;;;29.70;101719.00;;;;5081154;28;20357;-66
2022/07/18 10:35:00;;;;;;;2.92;1.83;;;;;29.90;101722.00;;;;5083630;28;20211;-64
2022/07/18 10:37:46;;;;;;;5.90;1.92;;;;;30.00;101716.00;;;;5081002;28;20207;-67
2022/07/18 10:40:32;;;;;;;2.38;1.52;;;;;30.20;101725.00;;;;5081951;28;20677;-67
2022/07/18 10:43:37;;;;;;;2.70;1.75;;;;;30.40;101716.00;;;;5076484;28;20284;-66
2022/07/18 10:46:24;;;;;;;8.80;3.80;;;;;30.40;101729.00;;;;5077418;28;20289;-67
2022/07/18 10:49:10;;;;;;;4.43;3.40;;;;;30.20;101720.00;;;;5079663;28;20314;-66
2022/07/18 10:51:58;;;;;;;2.95;1.58;;;;;30.30;101720.00;;;;5079674;28;20223;-66
2022/07/18 10:55:22;;;;;;;3.30;1.45;;;;;30.30;101717.00;;;;5076405;28;20591;-69
2022/07/18 10:58:22;;;;;;;1.73;1.40;;;;;30.60;101721.00;;;;5082508;28;20789;-67
2022/07/18 11:01:18;;;;;;;2.42;1.45;;;;;30.60;101722.00;;;;5083093;28;20219;-66
2022/07/18 11:04:22;;;;;;;2.88;1.73;;;;;30.70;101730.00;;;;5084717;28;20338;-66
2022/07/18 11:07:17;;;;;;;3.58;1.60;;;;;30.80;101723.00;;;;5079786;28;20741;-65
2022/07/18 11:10:03;;;;;;;1.70;1.48;;;;;31.10;101726.00;;;;5087684;28;20195;-65
2022/07/18 11:13:21;;;;;;;2.63;1.58;;;;;31.00;101724.00;;;;5086367;28;21052;-64
2022/07/18 11:16:13;;;;;;;1.85;1.35;;;;;31.50;101703.00;;;;5086920;28;20570;-65
2022/07/18 11:19:20;;;;;;;1.33;1.23;;;;;31.50;101711.00;;;;5087946;28;20211;-65
2022/07/18 11:22:07;;;;;;;2.53;1.33;;;;;31.70;101702.00;;;;5081636;28;20211;-65
2022/07/18 11:24:55;;;;;;;2.92;1.48;;;;;31.90;101705.00;;;;5083625;28;20957;-65
2022/07/18 11:27:41;;;;;;;1.75;1.20;;;;;31.90;101702.00;;;;5080267;28;20215;-65
2022/07/18 11:30:28;;;;;;;2.10;1.67;;;;;31.70;101686.00;;;;5078829;28;20212;-64
2022/07/18 11:33:22;;;;;;;1.42;1.30;;;;;32.20;101697.00;;;;5086374;28;20361;-66
2022/07/18 11:36:11;;;;;;;4.65;1.63;;;;;32.20;101699.00;;;;5087200;28;20211;-65
2022/07/18 11:38:59;;;;;;;1.63;1.35;;;;;32.40;101692.00;;;;5086893;28;20724;-64
2022/07/18 11:41:47;;;;;;;1.67;1.40;;;;;32.40;101685.00;;;;5081051;28;20877;-66
2022/07/18 11:44:34;;;;;;;2.80;1.50;;;;;32.10;101685.00;;;;5087999;28;20267;-65
2022/07/18 11:47:20;;;;;;;2.75;1.38;;;;;32.30;101686.00;;;;5085624;28;20203;-64
2022/07/18 11:50:08;;;;;;;5.72;1.63;;;;;32.30;101684.00;;;;5081140;28;20250;-66
2022/07/18 11:52:57;;;;;;;1.95;1.45;;;;;32.60;101681.00;;;;5085514;28;20308;-64
2022/07/18 11:55:44;;;;;;;2.33;1.33;;;;;32.60;101678.00;;;;5081967;28;20710;-65
2022/07/18 11:58:36;;;;;;;1.67;1.30;;;;;32.60;101685.00;;;;5080961;28;20208;-65
2022/07/18 12:01:23;;;;;;;2.53;1.40;;;;;32.80;101682.00;;;;5083369;28;20210;-65
2022/07/18 12:04:18;;;;;;;2.30;1.50;;;;;33.00;101675.00;;;;5086991;28;20350;-65
2022/07/18 12:07:19;;;;;;;1.85;1.40;;;;;33.00;101675.00;;;;5082281;28;20208;-64
2022/07/18 12:10:18;;;;;;;1.60;1.50;;;;;33.30;101669.00;;;;5078570;28;20753;-66
2022/07/18 12:13:05;;;;;;;1.73;1.58;;;;;33.40;101671.00;;;;5084789;28;20235;-65
2022/07/18 12:15:52;;;;;;;2.25;1.50;;;;;33.40;101669.00;;;;5084004;28;20207;-64
2022/07/18 12:18:49;;;;;;;2.53;1.70;;;;;33.50;101671.00;;;;5084654;28;20309;-64
2022/07/18 12:21:49;;;;;;;3.70;1.48;;;;;33.60;101678.00;;;;5076824;28;20894;-65
2022/07/18 12:24:37;;;;;;;3.70;1.50;;;;;33.00;101673.00;;;;5075031;28;20297;-64
2022/07/18 12:27:25;;;;;;;5.35;1.80;;;;;32.60;101656.00;;;;5080670;28;20306;-64
2022/07/18 12:30:13;;;;;;;3.20;1.52;;;;;32.30;101665.00;;;;5085005;28;20779;-64
2022/07/18 12:33:08;;;;;;;2.60;1.52;;;;;32.30;101671.00;;;;5070031;28;20228;-63
2022/07/18 12:35:59;;;;;;;2.72;1.70;;;;;32.30;101657.00;;;;5086444;28;20321;-64
2022/07/18 12:39:00;;;;;;;1.95;1.60;;;;;32.60;101649.00;;;;5079036;28;20277;-65
2022/07/18 12:41:47;;;;;;;3.25;1.80;;;;;32.40;101644.00;;;;5083921;28;20704;-65
2022/07/18 12:44:33;;;;;;;3.55;1.70;;;;;32.50;101648.00;;;;5075215;28;20224;-65
2022/07/18 12:47:19;;;;;;;3.13;2.03;;;;;32.60;101639.00;;;;5079736;28;20219;-64
2022/07/18 12:50:08;;;;;;;3.00;1.52;;;;;32.80;101648.00;;;;5081394;28;21089;-65
2022/07/18 12:53:00;;;;;;;4.45;1.58;;;;;32.90;101642.00;;;;5084645;28;20665;-65
2022/07/18 12:55:46;;;;;;;2.53;1.60;;;;;33.10;101640.00;;;;5079550;28;20248;-65
2022/07/18 12:58:32;;;;;;;2.58;1.80;;;;;32.90;101638.00;;;;5078511;28;20211;-66
2022/07/18 13:01:19;;;;;;;2.22;1.63;;;;;32.80;101634.00;;;;5083182;28;20228;-66
2022/07/18 13:04:06;;;;;;;5.35;1.80;;;;;33.20;101631.00;;;;5078446;28;21154;-67
2022/07/18 13:06:54;;;;;;;4.50;1.83;;;;;33.80;101630.00;;;;5076843;28;20215;-66
2022/07/18 13:09:40;;;;;;;2.58;1.70;;;;;34.10;101624.00;;;;5074839;28;20284;-66
2022/07/18 13:12:26;;;;;;;3.05;1.80;;;;;34.30;101617.00;;;;5082426;28;20227;-66
2022/07/18 13:15:13;;;;;;;2.33;1.50;;;;;34.50;101615.00;;;;5085436;28;20287;-66
2022/07/18 13:17:59;;;;;;;6.20;2.03;;;;;34.50;101626.00;;;;5079507;28;20199;-66
2022/07/18 13:20:46;;;;;;;2.58;1.70;;;;;34.70;101620.00;;;;5082478;28;20233;-66
2022/07/18 13:23:34;;;;;;;2.72;1.70;;;;;34.80;101608.00;;;;5084573;28;20231;-69
2022/07/18 13:26:20;;;;;;;2.70;1.60;;;;;35.00;101612.00;;;;5074023;28;20207;-71
2022/07/18 13:29:06;;;;;;;4.47;1.30;;;;;35.20;101608.00;;;;5082135;28;20211;-70
2022/07/18 13:31:53;;;;;;;2.30;1.42;;;;;35.40;101609.00;;;;5080686;28;20211;-68
2022/07/18 13:34:39;;;;;;;2.17;1.60;;;;;35.40;101605.00;;;;5081322;28;20726;-71
2022/07/18 13:37:27;;;;;;;3.70;1.58;;;;;35.30;101599.00;;;;5080318;28;20756;-69
2022/07/18 13:40:15;;;;;;;2.72;1.33;;;;;35.30;101596.00;;;;5072088;28;20211;-71
2022/07/18 13:43:01;;;;;;;3.45;1.92;;;;;35.70;101602.00;;;;5078736;28;20595;-73
2022/07/18 13:45:47;;;;;;;5.32;1.90;;;;;35.80;101601.00;;;;5073856;28;20219;-70
2022/07/18 13:48:34;;;;;;;2.42;1.50;;;;;35.80;101605.00;;;;5076723;28;20678;-71
2022/07/18 13:51:21;;;;;;;2.80;1.48;;;;;36.00;101600.00;;;;5081338;28;20253;-69
2022/07/18 13:54:08;;;;;;;3.10;1.58;;;;;36.10;101604.00;;;;5085208;28;20235;-71